Time;durP1;ratioP1;P1;durP2;ratioP2;P2;SDS_P1;SDS_P2;PMS_P1;PMS_P2;Temp;Humidity;BMP_temperature;BMP_pressure;BME280_temperature;BME280_humidity;BME280_pressure;Samples;Min_cycle;Max_cycle;Signal;HPM_P1;HPM_P2
2021/10/31 00:01:39;;;;;;;0.70;0.67;;;13.30;99.90;;;;;;5035573;28;20185;-65
2021/10/31 00:04:05;;;;;;;0.70;0.50;;;13.30;99.90;;;;;;5044901;28;20215;-69
2021/10/31 00:06:31;;;;;;;0.70;0.30;;;13.40;99.90;;;;;;5028173;28;20572;-69
2021/10/31 00:08:56;;;;;;;0.30;0.10;;;13.40;99.90;;;;;;5045020;28;20252;-70
2021/10/31 00:11:22;;;;;;;0.77;0.77;;;13.50;99.90;;;;;;5044737;28;20192;-69
2021/10/31 00:13:47;;;;;;;0.97;0.40;;;13.50;99.90;;;;;;5044263;28;20193;-70
2021/10/31 00:16:13;;;;;;;1.57;1.47;;;13.50;99.90;;;;;;5044185;28;20241;-69
2021/10/31 00:18:39;;;;;;;0.93;0.93;;;13.40;99.90;;;;;;5044678;28;20196;-69
2021/10/31 00:21:04;;;;;;;2.73;1.40;;;13.30;99.90;;;;;;5044543;28;20190;-69
2021/10/31 00:23:30;;;;;;;0.30;0.20;;;13.20;99.90;;;;;;5026685;28;20186;-70
2021/10/31 00:25:56;;;;;;;0.57;0.57;;;13.20;99.90;;;;;;5043951;28;20177;-70
2021/10/31 00:28:22;;;;;;;2.13;2.00;;;13.10;99.90;;;;;;5043782;28;20431;-69
2021/10/31 00:30:47;;;;;;;0.30;0.10;;;13.10;99.90;;;;;;5044373;28;20181;-69
2021/10/31 00:33:13;;;;;;;3.23;2.00;;;13.10;99.90;;;;;;5044316;28;20185;-68
2021/10/31 00:35:39;;;;;;;0.30;0.13;;;13.10;99.90;;;;;;5044413;28;20205;-68
2021/10/31 00:38:05;;;;;;;0.40;0.30;;;13.10;99.90;;;;;;5044219;28;20231;-68
2021/10/31 00:40:37;;;;;;;0.70;0.47;;;13.30;99.90;;;;;;5043557;28;20200;-68
2021/10/31 00:43:03;;;;;;;0.30;0.20;;;13.30;99.90;;;;;;5026005;28;20186;-68
2021/10/31 00:45:28;;;;;;;0.87;0.63;;;13.30;99.90;;;;;;5026391;28;20594;-69
2021/10/31 00:47:54;;;;;;;0.30;0.20;;;13.30;99.90;;;;;;5041401;28;20497;-69
2021/10/31 00:50:21;;;;;;;3.00;2.15;;;13.30;99.90;;;;;;5038850;28;20606;-67
2021/10/31 00:52:47;;;;;;;0.30;0.20;;;13.30;99.90;;;;;;5039049;28;20193;-69
2021/10/31 00:55:15;;;;;;;0.30;0.20;;;13.30;99.90;;;;;;5042469;28;20201;-66
2021/10/31 00:57:41;;;;;;;0.30;0.10;;;13.40;99.90;;;;;;5033934;28;20429;-66
2021/10/31 01:00:09;;;;;;;0.30;0.20;;;13.50;99.90;;;;;;5034257;28;20199;-65
2021/10/31 01:02:35;;;;;;;2.00;1.85;;;13.40;99.90;;;;;;5034253;28;20170;-67
2021/10/31 01:05:04;;;;;;;0.50;0.30;;;13.30;99.90;;;;;;5039000;28;20184;-70
2021/10/31 01:07:30;;;;;;;0.30;0.20;;;13.40;99.90;;;;;;5027327;28;20205;-69
2021/10/31 01:10:08;;;;;;;0.30;0.20;;;13.40;99.90;;;;;;5028060;28;20264;-69
2021/10/31 01:12:48;;;;;;;1.00;1.00;;;13.40;99.90;;;;;;5046050;28;20511;-69
2021/10/31 01:15:23;;;;;;;0.30;0.20;;;13.40;99.90;;;;;;5027232;28;20208;-69
2021/10/31 01:18:20;;;;;;;0.30;0.20;;;13.40;99.90;;;;;;5044778;28;20184;-69
2021/10/31 01:21:04;;;;;;;0.55;0.55;;;13.30;99.90;;;;;;5045012;28;20158;-69
2021/10/31 01:23:58;;;;;;;0.30;0.10;;;13.30;99.90;;;;;;5044105;28;20173;-69
2021/10/31 01:26:46;;;;;;;0.40;0.35;;;13.30;99.90;;;;;;5027343;28;20192;-69
2021/10/31 01:29:33;;;;;;;0.30;0.20;;;13.20;99.90;;;;;;5023687;28;20284;-66
2021/10/31 01:32:05;;;;;;;0.30;0.10;;;13.30;99.90;;;;;;5033729;28;20650;-65
2021/10/31 01:34:57;;;;;;;0.30;0.20;;;13.40;99.90;;;;;;5033738;28;20559;-65
2021/10/31 01:37:29;;;;;;;0.30;0.20;;;13.30;99.90;;;;;;5033630;28;20182;-65
2021/10/31 01:40:11;;;;;;;1.13;1.10;;;13.30;99.90;;;;;;5033402;28;20188;-66
2021/10/31 01:42:44;;;;;;;0.30;0.20;;;13.20;99.90;;;;;;5033560;28;20178;-67
2021/10/31 01:45:27;;;;;;;0.88;0.47;;;13.30;99.90;;;;;;5033486;28;20510;-67
2021/10/31 01:48:07;;;;;;;0.30;0.20;;;13.30;99.90;;;;;;5015894;28;20309;-67
2021/10/31 01:50:45;;;;;;;1.65;1.55;;;13.10;99.90;;;;;;5033506;28;20614;-67
2021/10/31 01:53:30;;;;;;;0.40;0.30;;;13.00;99.90;;;;;;5033245;28;20177;-66
2021/10/31 01:56:10;;;;;;;2.05;1.52;;;13.00;99.90;;;;;;5033291;28;20617;-66
2021/10/31 01:58:39;;;;;;;0.30;0.20;;;13.00;99.90;;;;;;5033281;28;20618;-66
2021/10/31 02:01:07;;;;;;;1.02;0.93;;;13.10;99.90;;;;;;5033435;28;20207;-66
2021/10/31 02:03:36;;;;;;;0.40;0.30;;;13.10;99.90;;;;;;5037159;28;20178;-66
2021/10/31 02:06:03;;;;;;;0.30;0.20;;;13.10;99.90;;;;;;5033286;28;20201;-65
2021/10/31 02:08:31;;;;;;;0.30;0.10;;;13.10;99.90;;;;;;5033016;28;20190;-65
2021/10/31 02:10:58;;;;;;;0.30;0.20;;;13.10;99.90;;;;;;5018588;28;20279;-66
2021/10/31 02:13:26;;;;;;;12.15;8.23;;;13.00;99.90;;;;;;5037121;28;20215;-66
2021/10/31 02:15:53;;;;;;;0.30;0.20;;;13.00;99.90;;;;;;5019692;28;20205;-66
2021/10/31 02:18:21;;;;;;;1.95;1.15;;;13.10;99.90;;;;;;5037054;28;20205;-67
2021/10/31 02:20:49;;;;;;;1.33;1.33;;;12.90;99.90;;;;;;5037121;28;20222;-67
2021/10/31 02:23:15;;;;;;;2.15;1.60;;;13.00;99.90;;;;;;5038362;28;20186;-65
2021/10/31 02:25:41;;;;;;;0.30;0.20;;;12.90;99.90;;;;;;5037420;28;20230;-65
2021/10/31 02:28:06;;;;;;;1.20;1.05;;;12.90;99.90;;;;;;5036822;28;20796;-65
2021/10/31 02:30:32;;;;;;;0.43;0.40;;;12.90;99.90;;;;;;5036989;28;20216;-65
2021/10/31 02:32:58;;;;;;;9.00;3.43;;;12.80;99.90;;;;;;5036883;28;20639;-65
2021/10/31 02:35:23;;;;;;;0.30;0.17;;;12.70;99.90;;;;;;5036779;28;20275;-65
2021/10/31 02:37:49;;;;;;;1.10;1.10;;;12.80;99.90;;;;;;5036811;28;20174;-65
2021/10/31 02:40:19;;;;;;;1.03;0.93;;;12.70;99.90;;;;;;5036559;28;20181;-65
2021/10/31 02:42:45;;;;;;;0.85;0.85;;;12.80;99.90;;;;;;5036745;28;20439;-65
2021/10/31 02:45:11;;;;;;;3.05;2.85;;;12.90;99.90;;;;;;5036716;28;20189;-65
2021/10/31 02:47:39;;;;;;;1.58;1.33;;;12.80;99.90;;;;;;5046711;28;20186;-68
2021/10/31 02:50:08;;;;;;;9.75;1.65;;;12.70;99.90;;;;;;5039559;28;20276;-66
2021/10/31 02:52:55;;;;;;;0.30;0.30;;;12.80;99.90;;;;;;5019206;28;20191;-66
2021/10/31 02:55:51;;;;;;;0.30;0.10;;;13.00;99.90;;;;;;5036498;28;20197;-66
2021/10/31 02:58:34;;;;;;;0.40;0.30;;;13.10;99.90;;;;;;5003187;28;20194;-66
2021/10/31 03:01:04;;;;;;;0.40;0.40;;;13.20;99.90;;;;;;5036430;28;20264;-67
2021/10/31 03:03:31;;;;;;;1.25;0.88;;;13.10;99.90;;;;;;5036462;28;20178;-66
2021/10/31 03:05:58;;;;;;;0.40;0.40;;;13.10;99.90;;;;;;5025290;28;20526;-68
2021/10/31 03:08:28;;;;;;;0.30;0.20;;;13.00;99.90;;;;;;5047370;28;20186;-69
2021/10/31 03:10:56;;;;;;;3.20;2.83;;;13.10;99.90;;;;;;5024695;28;20219;-67
2021/10/31 03:13:24;;;;;;;0.75;0.70;;;13.10;99.90;;;;;;5036120;28;20531;-66
2021/10/31 03:15:50;;;;;;;0.40;0.32;;;13.00;99.90;;;;;;5046309;28;20209;-68
2021/10/31 03:18:15;;;;;;;0.33;0.27;;;13.10;99.90;;;;;;5030054;28;20213;-69
2021/10/31 03:20:41;;;;;;;1.80;1.70;;;13.20;99.90;;;;;;5036977;28;20878;-66
2021/10/31 03:23:07;;;;;;;0.30;0.10;;;13.20;99.90;;;;;;5035963;28;20181;-66
2021/10/31 03:25:33;;;;;;;0.82;0.82;;;13.10;99.90;;;;;;5038466;28;20280;-66
2021/10/31 03:27:58;;;;;;;1.33;0.77;;;13.20;99.90;;;;;;5035745;28;20637;-65
2021/10/31 03:30:24;;;;;;;0.83;0.83;;;13.30;99.90;;;;;;5035790;28;20424;-65
2021/10/31 03:32:49;;;;;;;0.30;0.20;;;13.30;99.90;;;;;;5035823;28;20296;-65
2021/10/31 03:35:16;;;;;;;0.30;0.20;;;13.20;99.90;;;;;;5035585;28;20212;-65
2021/10/31 03:37:44;;;;;;;0.60;0.60;;;13.20;99.90;;;;;;5035746;28;20483;-65
2021/10/31 03:40:11;;;;;;;0.30;0.20;;;13.20;99.90;;;;;;5035348;28;20208;-65
2021/10/31 03:42:37;;;;;;;0.40;0.30;;;13.20;99.90;;;;;;5035588;28;20177;-65
2021/10/31 03:45:05;;;;;;;0.30;0.20;;;13.20;99.90;;;;;;5035523;28;20170;-65
2021/10/31 03:47:33;;;;;;;0.40;0.30;;;13.20;99.90;;;;;;5035451;28;20548;-65
2021/10/31 03:49:59;;;;;;;0.43;0.43;;;13.30;99.90;;;;;;5035187;28;20622;-65
2021/10/31 03:52:24;;;;;;;2.50;2.40;;;13.30;99.90;;;;;;5035308;28;20290;-65
2021/10/31 03:54:50;;;;;;;0.30;0.17;;;13.60;99.90;;;;;;5035193;28;20276;-65
2021/10/31 03:57:16;;;;;;;1.87;1.70;;;13.70;99.90;;;;;;5035335;28;20256;-65
2021/10/31 03:59:41;;;;;;;0.40;0.30;;;13.60;99.90;;;;;;5022929;28;20288;-68
2021/10/31 04:02:07;;;;;;;0.30;0.10;;;13.40;99.90;;;;;;5036734;28;20432;-66
2021/10/31 04:04:33;;;;;;;0.30;0.20;;;13.40;99.90;;;;;;5037242;28;20204;-68
2021/10/31 04:06:58;;;;;;;0.30;0.20;;;13.40;99.90;;;;;;5029116;28;20231;-68
2021/10/31 04:09:24;;;;;;;0.30;0.20;;;13.30;99.90;;;;;;5046011;28;20189;-68
2021/10/31 04:11:50;;;;;;;1.47;1.37;;;13.40;99.90;;;;;;5046122;28;20269;-70
2021/10/31 04:14:15;;;;;;;0.30;0.20;;;13.10;99.90;;;;;;5028919;28;20205;-69
2021/10/31 04:16:41;;;;;;;0.40;0.30;;;13.20;99.90;;;;;;5036256;28;20685;-65
2021/10/31 04:19:07;;;;;;;0.30;0.17;;;13.10;99.90;;;;;;5034706;28;20516;-65
2021/10/31 04:21:32;;;;;;;0.30;0.20;;;13.00;99.90;;;;;;5017452;28;20580;-65
2021/10/31 04:23:58;;;;;;;2.00;1.90;;;12.90;99.90;;;;;;5034728;28;20679;-66
2021/10/31 04:26:23;;;;;;;0.80;0.70;;;12.80;99.90;;;;;;5034675;28;20621;-66
2021/10/31 04:28:49;;;;;;;0.60;0.60;;;12.70;99.90;;;;;;5034620;28;20193;-68
2021/10/31 04:31:14;;;;;;;1.57;1.47;;;12.60;99.90;;;;;;5045830;28;20193;-68
2021/10/31 04:33:40;;;;;;;0.90;0.83;;;12.60;99.90;;;;;;5044853;28;20174;-68
2021/10/31 04:36:06;;;;;;;0.80;0.80;;;12.60;99.90;;;;;;5027929;28;20270;-69
2021/10/31 04:38:33;;;;;;;0.30;0.20;;;12.50;99.90;;;;;;5045919;28;20728;-69
2021/10/31 04:40:59;;;;;;;1.10;1.10;;;12.50;99.90;;;;;;5041520;28;20191;-67
2021/10/31 04:43:26;;;;;;;5.03;1.75;;;12.60;99.90;;;;;;5034366;28;20272;-67
2021/10/31 04:45:53;;;;;;;0.30;0.20;;;12.50;99.90;;;;;;5034332;28;20189;-66
2021/10/31 04:48:19;;;;;;;3.90;2.90;;;12.40;99.90;;;;;;5034133;28;20173;-66
2021/10/31 04:50:45;;;;;;;0.50;0.40;;;12.40;99.90;;;;;;5034160;28;20182;-66
2021/10/31 04:53:10;;;;;;;0.57;0.57;;;12.40;99.90;;;;;;5016745;28;20181;-66
2021/10/31 04:55:37;;;;;;;0.60;0.60;;;12.40;99.90;;;;;;5034266;28;20209;-66
2021/10/31 04:58:04;;;;;;;0.40;0.35;;;12.40;99.90;;;;;;5033860;28;20305;-66
2021/10/31 05:00:30;;;;;;;1.08;0.88;;;12.40;99.90;;;;;;5034221;28;20201;-66
2021/10/31 05:02:56;;;;;;;0.30;0.20;;;12.40;99.90;;;;;;5034120;28;20491;-66
2021/10/31 05:05:22;;;;;;;0.30;0.20;;;12.30;99.90;;;;;;5034132;28;20482;-66
2021/10/31 05:07:49;;;;;;;0.30;0.20;;;12.30;99.90;;;;;;5037553;28;20527;-68
2021/10/31 05:10:18;;;;;;;0.30;0.20;;;12.20;99.90;;;;;;5044808;28;20241;-68
2021/10/31 05:12:45;;;;;;;0.30;0.20;;;12.30;99.90;;;;;;5045166;28;20220;-68
2021/10/31 05:15:11;;;;;;;0.30;0.20;;;12.30;99.90;;;;;;5043413;28;20169;-66
2021/10/31 05:17:37;;;;;;;0.30;0.20;;;12.30;99.90;;;;;;5044218;28;20184;-68
2021/10/31 05:20:03;;;;;;;0.30;0.20;;;12.40;99.90;;;;;;5027770;28;20182;-68
2021/10/31 05:22:29;;;;;;;0.30;0.20;;;12.40;99.90;;;;;;5017458;28;20250;-66
2021/10/31 05:24:54;;;;;;;0.77;0.77;;;12.30;99.90;;;;;;5016607;28;20533;-66
2021/10/31 05:27:20;;;;;;;0.30;0.20;;;12.20;99.90;;;;;;5016427;28;20184;-67
2021/10/31 05:29:45;;;;;;;0.30;0.20;;;12.20;99.90;;;;;;5020458;28;20178;-65
2021/10/31 05:32:11;;;;;;;0.90;0.90;;;12.30;99.90;;;;;;5033622;28;20256;-65
2021/10/31 05:34:37;;;;;;;1.77;1.63;;;12.20;99.90;;;;;;5016115;28;20177;-65
2021/10/31 05:37:03;;;;;;;0.30;0.20;;;12.20;99.90;;;;;;5033557;28;20536;-65
2021/10/31 05:39:28;;;;;;;1.13;0.97;;;12.20;99.90;;;;;;5033330;28;20222;-65
2021/10/31 05:41:54;;;;;;;0.30;0.10;;;12.20;99.90;;;;;;5016216;28;20501;-65
2021/10/31 05:44:19;;;;;;;0.30;0.20;;;12.20;99.90;;;;;;5016056;28;20619;-65
2021/10/31 05:46:45;;;;;;;0.77;0.77;;;12.30;99.90;;;;;;5016296;28;20382;-65
2021/10/31 05:49:11;;;;;;;0.30;0.20;;;12.20;99.90;;;;;;5015686;28;20192;-65
2021/10/31 05:51:36;;;;;;;0.30;0.20;;;12.20;99.90;;;;;;5033483;28;20456;-65
2021/10/31 05:54:02;;;;;;;0.30;0.20;;;12.20;99.90;;;;;;5033539;28;20502;-66
2021/10/31 05:56:28;;;;;;;0.30;0.20;;;12.30;99.90;;;;;;5035841;28;20540;-67
2021/10/31 05:58:54;;;;;;;0.30;0.20;;;12.20;99.90;;;;;;5033356;28;20629;-65
2021/10/31 06:01:19;;;;;;;0.30;0.10;;;12.10;99.90;;;;;;5033386;28;20173;-65
2021/10/31 06:03:45;;;;;;;0.30;0.20;;;12.10;99.90;;;;;;5033287;28;20257;-65
2021/10/31 06:06:11;;;;;;;0.30;0.10;;;12.10;99.90;;;;;;5038629;28;20269;-68
2021/10/31 06:08:36;;;;;;;0.30;0.10;;;12.20;99.90;;;;;;5026839;28;20177;-69
2021/10/31 06:11:02;;;;;;;0.30;0.20;;;12.10;99.90;;;;;;5020005;28;20177;-67
2021/10/31 06:13:28;;;;;;;0.30;0.20;;;12.10;99.90;;;;;;5033253;28;20205;-66
2021/10/31 06:15:54;;;;;;;0.30;0.10;;;12.00;99.90;;;;;;5015809;28;20343;-66
2021/10/31 06:18:20;;;;;;;0.30;0.20;;;12.10;99.90;;;;;;5035047;28;20181;-67
2021/10/31 06:20:46;;;;;;;0.30;0.10;;;12.10;99.90;;;;;;5026650;28;20185;-70
2021/10/31 06:23:13;;;;;;;0.30;0.20;;;12.20;99.90;;;;;;5016302;28;20184;-66
2021/10/31 06:25:39;;;;;;;0.30;0.10;;;12.10;99.90;;;;;;5035311;28;20367;-70
2021/10/31 06:28:05;;;;;;;0.30;0.20;;;12.20;99.90;;;;;;5035889;28;20181;-68
2021/10/31 06:30:30;;;;;;;0.30;0.20;;;12.00;99.90;;;;;;5031066;28;20463;-67
2021/10/31 06:32:56;;;;;;;0.30;0.10;;;12.00;99.90;;;;;;5024027;28;20257;-66
2021/10/31 06:35:22;;;;;;;0.30;0.20;;;12.00;99.90;;;;;;5033658;28;20339;-66
2021/10/31 06:37:49;;;;;;;0.30;0.20;;;12.00;99.90;;;;;;5032651;28;20506;-66
2021/10/31 06:40:16;;;;;;;0.50;0.30;;;12.10;99.90;;;;;;5037935;28;20428;-70
2021/10/31 06:42:42;;;;;;;0.30;0.20;;;12.00;99.90;;;;;;5039535;28;20235;-70
2021/10/31 06:45:08;;;;;;;0.30;0.17;;;12.00;99.90;;;;;;5036015;28;20264;-65
2021/10/31 06:47:33;;;;;;;0.30;0.10;;;12.10;99.90;;;;;;5015653;28;20428;-65
2021/10/31 06:50:00;;;;;;;0.30;0.17;;;12.10;99.90;;;;;;5032957;28;20633;-65
2021/10/31 06:52:26;;;;;;;0.30;0.20;;;12.00;99.90;;;;;;5030441;28;20185;-67
2021/10/31 06:54:52;;;;;;;0.88;0.88;;;12.10;99.90;;;;;;5035333;28;20181;-68
2021/10/31 06:57:18;;;;;;;0.40;0.40;;;12.00;99.90;;;;;;5020087;28;20228;-68
2021/10/31 06:59:43;;;;;;;0.30;0.20;;;11.90;99.90;;;;;;5039433;28;20670;-66
2021/10/31 07:02:09;;;;;;;0.30;0.10;;;11.90;99.90;;;;;;5027005;28;20452;-67
2021/10/31 07:04:35;;;;;;;0.70;0.70;;;12.00;99.90;;;;;;5032090;28;20178;-66
2021/10/31 07:07:01;;;;;;;0.50;0.50;;;12.20;99.90;;;;;;5021409;28;20200;-66
2021/10/31 07:09:26;;;;;;;0.30;0.10;;;12.20;99.90;;;;;;5035854;28;20239;-66
2021/10/31 07:11:52;;;;;;;0.30;0.20;;;12.40;99.90;;;;;;5025915;28;20197;-65
2021/10/31 07:14:18;;;;;;;0.30;0.20;;;12.40;99.90;;;;;;5019393;28;20209;-65
2021/10/31 07:16:44;;;;;;;0.40;0.40;;;12.50;99.90;;;;;;5018215;28;20201;-65
2021/10/31 07:19:10;;;;;;;1.17;1.13;;;12.50;99.90;;;;;;5035397;28;20174;-65
2021/10/31 07:21:37;;;;;;;0.30;0.10;;;12.50;99.90;;;;;;5035403;28;20428;-64
2021/10/31 07:24:05;;;;;;;1.48;1.38;;;12.50;99.90;;;;;;5035995;28;20320;-64
2021/10/31 07:26:30;;;;;;;0.50;0.50;;;12.60;99.90;;;;;;5035490;28;20185;-64
2021/10/31 07:28:56;;;;;;;0.70;0.70;;;12.50;99.90;;;;;;5035267;28;20638;-64
2021/10/31 07:31:23;;;;;;;0.30;0.10;;;12.60;99.90;;;;;;5018033;28;20521;-64
2021/10/31 07:33:48;;;;;;;0.30;0.20;;;12.60;99.90;;;;;;5035587;28;20674;-64
2021/10/31 07:36:14;;;;;;;0.30;0.20;;;12.60;99.90;;;;;;5035420;28;20308;-64
2021/10/31 07:38:42;;;;;;;0.30;0.10;;;12.60;99.90;;;;;;5035234;28;20221;-64
2021/10/31 07:41:07;;;;;;;0.30;0.10;;;12.60;99.90;;;;;;5018343;28;20182;-64
2021/10/31 07:43:33;;;;;;;0.30;0.10;;;12.50;99.90;;;;;;5018474;28;20184;-65
2021/10/31 07:46:00;;;;;;;0.30;0.20;;;12.50;99.90;;;;;;5035395;28;20177;-65
2021/10/31 07:48:25;;;;;;;0.50;0.30;;;12.50;99.90;;;;;;5017804;28;20250;-66
2021/10/31 07:50:51;;;;;;;1.50;1.03;;;12.50;99.90;;;;;;5023707;28;20182;-68
2021/10/31 07:53:17;;;;;;;0.90;0.77;;;12.50;99.90;;;;;;5041295;28;20198;-69
2021/10/31 07:55:48;;;;;;;0.30;0.20;;;12.50;99.90;;;;;;5023211;28;20219;-69
2021/10/31 07:58:16;;;;;;;0.45;0.20;;;12.50;99.90;;;;;;5019914;28;20190;-67
2021/10/31 08:00:42;;;;;;;0.30;0.20;;;12.40;99.90;;;;;;5034814;28;20296;-67
2021/10/31 08:03:08;;;;;;;0.30;0.20;;;12.40;99.90;;;;;;5034734;28;20208;-67
2021/10/31 08:05:33;;;;;;;0.40;0.40;;;12.60;99.90;;;;;;5034968;28;20436;-66
2021/10/31 08:07:59;;;;;;;0.30;0.20;;;12.90;99.90;;;;;;5017622;28;20177;-66
2021/10/31 08:10:26;;;;;;;0.30;0.10;;;13.00;99.90;;;;;;5035061;28;20718;-65
2021/10/31 08:12:52;;;;;;;0.30;0.20;;;13.10;99.90;;;;;;5017541;28;20626;-64
2021/10/31 08:15:18;;;;;;;1.23;1.13;;;13.10;99.90;;;;;;5017792;28;20195;-66
2021/10/31 08:17:43;;;;;;;0.40;0.30;;;13.00;99.90;;;;;;5031276;28;20913;-66
2021/10/31 08:20:10;;;;;;;0.30;0.10;;;13.00;99.90;;;;;;5020034;28;20220;-66
2021/10/31 08:22:36;;;;;;;0.30;0.20;;;13.10;99.90;;;;;;5017447;28;20567;-66
2021/10/31 08:25:03;;;;;;;0.30;0.20;;;13.10;99.90;;;;;;5034397;28;20205;-66
2021/10/31 08:27:29;;;;;;;0.80;0.80;;;13.20;99.90;;;;;;5034547;28;20165;-66
2021/10/31 08:29:55;;;;;;;0.50;0.50;;;13.00;99.90;;;;;;5032731;28;20704;-66
2021/10/31 08:32:23;;;;;;;0.30;0.20;;;13.00;99.90;;;;;;5034100;28;20241;-66
2021/10/31 08:34:49;;;;;;;0.30;0.10;;;13.10;99.90;;;;;;5016832;28;20184;-67
2021/10/31 08:37:15;;;;;;;0.30;0.20;;;13.00;99.90;;;;;;5016703;28;20201;-67
2021/10/31 08:39:41;;;;;;;0.30;0.20;;;12.80;99.90;;;;;;5033783;28;20264;-67
2021/10/31 08:42:07;;;;;;;3.50;1.40;;;12.80;99.90;;;;;;5034490;28;20212;-67
2021/10/31 08:44:36;;;;;;;0.30;0.20;;;12.90;99.90;;;;;;5016838;28;20273;-66
2021/10/31 08:47:02;;;;;;;0.57;0.57;;;12.70;99.90;;;;;;5017046;28;20529;-66
2021/10/31 08:49:28;;;;;;;1.37;1.20;;;12.60;99.90;;;;;;5016750;28;20196;-66
2021/10/31 08:51:53;;;;;;;0.40;0.30;;;12.60;99.90;;;;;;5034537;28;20905;-67
2021/10/31 08:54:19;;;;;;;0.30;0.20;;;12.50;99.90;;;;;;5034333;28;20193;-67
2021/10/31 08:56:45;;;;;;;0.30;0.20;;;12.50;99.90;;;;;;5034751;28;20209;-69
2021/10/31 08:59:10;;;;;;;1.73;1.63;;;12.70;99.90;;;;;;5035353;28;20177;-69
2021/10/31 09:01:36;;;;;;;0.70;0.57;;;12.90;99.90;;;;;;5017355;28;20424;-67
2021/10/31 09:04:02;;;;;;;0.30;0.20;;;13.00;99.90;;;;;;5016770;28;20178;-68
2021/10/31 09:06:28;;;;;;;0.30;0.20;;;12.90;99.90;;;;;;5034738;28;20268;-69
2021/10/31 09:08:55;;;;;;;1.02;1.02;;;13.00;99.90;;;;;;5034103;28;20265;-67
2021/10/31 09:11:20;;;;;;;3.97;3.60;;;13.30;99.90;;;;;;5034202;28;20185;-66
2021/10/31 09:13:49;;;;;;;0.30;0.20;;;13.50;99.90;;;;;;5034037;28;20197;-66
2021/10/31 09:16:14;;;;;;;0.30;0.20;;;13.70;99.90;;;;;;5033921;28;20215;-67
2021/10/31 09:18:40;;;;;;;0.40;0.40;;;13.90;99.90;;;;;;5033547;28;20256;-67
2021/10/31 09:21:07;;;;;;;0.30;0.23;;;13.80;99.90;;;;;;5016669;28;20572;-67
2021/10/31 09:23:33;;;;;;;0.30;0.20;;;14.00;99.90;;;;;;5034042;28;20169;-67
2021/10/31 09:26:00;;;;;;;0.30;0.10;;;14.20;99.90;;;;;;5033921;28;20169;-68
2021/10/31 09:28:25;;;;;;;0.88;0.82;;;14.30;99.90;;;;;;5033601;28;20256;-67
2021/10/31 09:30:51;;;;;;;3.50;3.40;;;14.30;99.90;;;;;;5034086;28;20560;-67
2021/10/31 09:33:17;;;;;;;1.37;1.30;;;14.60;99.90;;;;;;5016467;28;20185;-67
2021/10/31 09:35:46;;;;;;;0.30;0.20;;;14.50;99.90;;;;;;5033337;28;20224;-67
2021/10/31 09:38:18;;;;;;;0.30;0.17;;;14.50;99.90;;;;;;5033486;28;20178;-67
2021/10/31 09:40:45;;;;;;;0.30;0.20;;;14.60;99.90;;;;;;5033697;28;20168;-67
2021/10/31 09:43:11;;;;;;;0.30;0.20;;;14.60;99.90;;;;;;5033543;28;20185;-67
2021/10/31 09:45:37;;;;;;;0.30;0.20;;;14.70;99.90;;;;;;5016283;28;20239;-67
2021/10/31 09:48:09;;;;;;;0.30;0.17;;;14.70;99.90;;;;;;5016087;28;20182;-68
2021/10/31 09:50:39;;;;;;;0.60;0.60;;;14.60;99.90;;;;;;5033588;28;20225;-68
2021/10/31 09:53:06;;;;;;;0.30;0.20;;;14.70;99.90;;;;;;5016203;28;20526;-68
2021/10/31 09:55:32;;;;;;;1.02;0.77;;;14.60;99.90;;;;;;5015980;28;20202;-69
2021/10/31 09:57:58;;;;;;;0.60;0.60;;;14.50;99.90;;;;;;5015878;28;20192;-69
2021/10/31 10:00:40;;;;;;;0.40;0.40;;;14.60;99.90;;;;;;5033740;28;20451;-69
2021/10/31 10:03:25;;;;;;;0.40;0.15;;;14.70;99.90;;;;;;5033650;28;20169;-70
2021/10/31 10:06:09;;;;;;;2.58;0.85;;;14.90;99.90;;;;;;5033509;28;20181;-66
2021/10/31 10:08:35;;;;;;;1.85;1.75;;;15.00;97.10;;;;;;5015807;28;20235;-67
2021/10/31 10:11:00;;;;;;;4.03;1.23;;;14.90;77.00;;;;;;5033616;28;20254;-67
2021/10/31 10:13:29;;;;;;;0.30;0.10;;;15.00;74.40;;;;;;5033225;28;20635;-68
2021/10/31 10:16:20;;;;;;;0.60;0.50;;;15.00;48.90;;;;;;5015856;28;20220;-67
2021/10/31 10:18:46;;;;;;;0.90;0.90;;;15.10;1.00;;;;;;5033354;28;20537;-69
2021/10/31 10:21:31;;;;;;;0.40;0.10;;;15.00;1.00;;;;;;5033419;28;20529;-69
2021/10/31 10:24:12;;;;;;;0.40;0.40;;;15.10;22.40;;;;;;5033190;28;20170;-69
2021/10/31 10:26:43;;;;;;;0.30;0.20;;;15.30;1.00;;;;;;5033442;28;20514;-69
2021/10/31 10:29:08;;;;;;;0.30;0.20;;;15.40;1.00;;;;;;5032908;28;20185;-70
2021/10/31 10:31:34;;;;;;;0.47;0.40;;;15.30;1.00;;;;;;5035237;28;20174;-68
2021/10/31 10:34:00;;;;;;;0.40;0.20;;;15.50;1.00;;;;;;5037325;28;20268;-69
2021/10/31 10:36:26;;;;;;;0.45;0.40;;;15.50;1.00;;;;;;5037506;28;20540;-70
2021/10/31 10:39:19;;;;;;;0.40;0.20;;;15.70;1.00;;;;;;5037074;28;20204;-70
2021/10/31 10:41:50;;;;;;;4.78;3.42;;;15.70;1.00;;;;;;5019615;28;20600;-68
2021/10/31 10:44:20;;;;;;;2.80;2.13;;;15.50;1.00;;;;;;5036705;28;20193;-68
2021/10/31 10:46:48;;;;;;;0.73;0.73;;;15.50;1.00;;;;;;5036818;28;20192;-68
2021/10/31 10:49:17;;;;;;;0.40;0.30;;;15.50;1.00;;;;;;5036594;28;20193;-68
2021/10/31 10:51:45;;;;;;;0.85;0.60;;;15.40;1.00;;;;;;5019265;28;20182;-68
2021/10/31 10:54:13;;;;;;;0.30;0.10;;;15.30;1.00;;;;;;5036736;28;20185;-68
2021/10/31 10:57:02;;;;;;;0.40;0.40;;;15.30;1.00;;;;;;5036514;28;20661;-68
2021/10/31 10:59:29;;;;;;;0.82;0.82;;;15.50;1.00;;;;;;5036446;28;20186;-68
2021/10/31 11:02:11;;;;;;;0.30;0.20;;;15.40;1.00;;;;;;5036976;28;20213;-68
2021/10/31 11:04:38;;;;;;;0.65;0.50;;;15.40;1.00;;;;;;5036507;28;20177;-68
2021/10/31 11:07:05;;;;;;;1.52;1.00;;;15.40;1.00;;;;;;5036602;28;20182;-68
2021/10/31 11:09:49;;;;;;;0.37;0.20;;;15.50;1.00;;;;;;5036650;28;20182;-68
2021/10/31 11:12:23;;;;;;;6.10;0.77;;;15.60;1.00;;;;;;5036444;28;20508;-68
2021/10/31 11:14:50;;;;;;;2.50;0.87;;;15.70;1.00;;;;;;5036270;28;20520;-67
2021/10/31 11:17:20;;;;;;;0.40;0.20;;;15.80;1.00;;;;;;5022867;28;20460;-67
2021/10/31 11:19:50;;;;;;;0.40;0.20;;;15.90;1.00;;;;;;5034710;28;20436;-67
2021/10/31 11:22:18;;;;;;;1.73;0.80;;;16.20;99.90;;;;;;5036457;28;20178;-68
2021/10/31 11:24:49;;;;;;;1.67;0.80;;;16.20;99.90;;;;;;5035356;28;20463;-67
2021/10/31 11:27:21;;;;;;;0.40;0.10;;;16.20;99.90;;;;;;5034384;28;20633;-67
2021/10/31 11:29:48;;;;;;;2.10;1.95;;;16.10;99.90;;;;;;5046675;28;20633;-67
2021/10/31 11:32:15;;;;;;;0.40;0.22;;;16.00;99.90;;;;;;5035793;28;20181;-68
2021/10/31 11:34:43;;;;;;;0.40;0.20;;;15.90;99.90;;;;;;5035619;28;20619;-67
2021/10/31 11:37:11;;;;;;;0.40;0.20;;;16.20;99.90;;;;;;5035391;28;20945;-68
2021/10/31 11:39:38;;;;;;;3.03;0.90;;;16.30;1.00;;;;;;5034373;28;20486;-68
2021/10/31 11:42:04;;;;;;;3.57;1.13;;;16.40;99.90;;;;;;5035623;28;20421;-68
2021/10/31 11:44:30;;;;;;;1.27;1.17;;;16.30;99.90;;;;;;5034964;28;20497;-68
2021/10/31 11:46:57;;;;;;;1.17;1.07;;;16.30;1.00;;;;;;5035669;28;20889;-67
2021/10/31 11:49:23;;;;;;;0.40;0.20;;;15.90;1.00;;;;;;5033619;28;20534;-67
2021/10/31 11:51:50;;;;;;;0.50;0.30;;;16.10;1.00;;;;;;5035516;28;20189;-68
2021/10/31 11:54:20;;;;;;;0.40;0.10;;;16.10;1.00;;;;;;5035502;28;20963;-69
2021/10/31 11:56:52;;;;;;;2.07;1.90;;;16.10;1.00;;;;;;5035293;28;20472;-68
2021/10/31 11:59:19;;;;;;;0.50;0.40;;;16.30;1.00;;;;;;5030064;28;20475;-69
2021/10/31 12:01:46;;;;;;;0.40;0.23;;;16.20;1.00;;;;;;5036637;28;20447;-70
2021/10/31 12:07:50;;;;;;;0.75;0.75;;;16.00;1.00;;;;;;5019334;28;20490;-70
2021/10/31 12:10:44;;;;;;;0.40;0.20;;;16.10;1.00;;;;;;5018663;28;20220;-67
2021/10/31 12:13:18;;;;;;;2.40;1.73;;;16.20;1.00;;;;;;5015514;28;20232;-67
2021/10/31 12:16:03;;;;;;;0.93;0.73;;;16.00;1.00;;;;;;5035159;28;20470;-68
2021/10/31 12:18:42;;;;;;;0.40;0.20;;;16.00;1.00;;;;;;5016831;28;20509;-67
2021/10/31 12:21:31;;;;;;;0.93;0.93;;;15.90;1.00;;;;;;5023579;28;20506;-67
2021/10/31 12:24:09;;;;;;;1.50;1.10;;;16.20;1.00;;;;;;5025279;28;20213;-67
2021/10/31 12:26:39;;;;;;;0.63;0.60;;;16.40;1.00;;;;;;5035235;28;20264;-67
2021/10/31 12:29:25;;;;;;;0.80;0.63;;;16.20;1.00;;;;;;5034155;28;20441;-67
2021/10/31 12:31:56;;;;;;;0.40;0.20;;;16.10;1.00;;;;;;5035182;28;20428;-67
2021/10/31 12:34:27;;;;;;;1.17;1.07;;;16.00;1.00;;;;;;5033876;28;20436;-67
2021/10/31 12:36:55;;;;;;;1.33;0.80;;;16.00;1.00;;;;;;5033939;28;20472;-67
2021/10/31 12:39:27;;;;;;;2.88;1.38;;;16.00;1.00;;;;;;5035045;28;20428;-66
2021/10/31 12:42:29;;;;;;;0.93;0.65;;;16.00;1.00;;;;;;5034537;28;20177;-67
2021/10/31 12:45:15;;;;;;;0.80;0.60;;;16.00;1.00;;;;;;5034645;28;20322;-67
2021/10/31 12:47:55;;;;;;;0.77;0.77;;;16.00;1.00;;;;;;5034737;28;20511;-66
2021/10/31 12:50:30;;;;;;;1.10;0.77;;;16.10;1.00;;;;;;5033821;28;20275;-66
2021/10/31 12:53:01;;;;;;;0.40;0.20;;;16.00;1.00;;;;;;5033926;28;20431;-66
2021/10/31 12:55:29;;;;;;;2.63;2.42;;;16.10;1.00;;;;;;5031020;28;20235;-66
2021/10/31 12:57:58;;;;;;;0.40;0.20;;;16.10;1.00;;;;;;5033837;28;20586;-66
2021/10/31 13:00:25;;;;;;;0.52;0.47;;;16.20;1.00;;;;;;5033647;28;20428;-66